Airfield :
LOGIN :

Register | Disclaimer

   EN    FR    IT 

 










Legend :    VFR   Marginal VFR   IFR   Intensive IFR   Very Intensive IFR
Visi :
Ceiling :
>= 8 km
>= 3000ft
5 to 8 km
1000 to 3000 ft
1500m to 5 km
500 to 1000 ft
800 to 1500m
200 to 500 ft
< 800m
< 200 ft
Symbols :   Thunderstorms  Fog  Heavy snow  Heavy precipitations  Wind > 20 kt
SIGMETs :     Misc.  Thunderstorms  Icing  Turbulence  Mountain Waves  Volcanic Ashes






- Airport Elevation : 123 ft
- IATA code : BLQ


LIPE - Bologna Guglielmo Marconi

CURRENT METAR :
  • 230420Z 18011KT 150V210 9999 FEW040 09/04 Q0990

EXPIRED METARs :
  • 230350Z 18007KT 9999 FEW040 09/05 Q0990
  • 230320Z 08005KT 050V130 9999 SCT040 SCT070 09/07 Q0990
  • 230250Z 12011KT 9999 -RA SCT040 BKN070 09/07 Q0990 RERA
  • 230220Z 16008KT 6000 RA SCT040 BKN070 10/08 Q0992
  • 230150Z 16003KT 130V200 8000 RA SCT050 BKN070 09/08 Q0992

TAF TAF LIPE
Valid from the 23 at 00:00 until the 24 at 00:00 UTC


222300Z 2300/2324 16006KT 8000 OVC010
TEMPO 2302/2311 3000 RA
BECMG 2308/2310 30010KT



MET'MAP, your aeronautical weather chart ! - Copyright ORBIFLY December 2007 - Disclaimer

ORBIFLY MET'MAP TEAM :

Programming & Development : Alexandra Zaïnal
Concept & original design : Baudouin d'Aumeries
Assistance for programming : Marc-Olivier Méhu
Technical & hardware support : Manuel Goepfert

Contact : metmap@orbifly.com




SOURCES & CREDITS :

   NOAA